Ann Arbor Township, Michigan
Current Conditions -  °F | °C
As of 1:03 AM on Sunday 23 Nov 2014 (Local Time) from KARB Reporting Station
Overcast Overcast  
Wind Chill: 44°   Ceiling: 3100
Heat Index: 48°   Visibility: 10mi
Dew Point: 41°   Wind: 8mph
Humidity: 77%   Direction: 230°SW
Pressure: 29.95"   Gusts: NA
Location:  42.3281°N, 83.7037°W
Report Text: KARB 230603Z AUTO 23007KT 10SM OVC031 09/05 A2995 RMK AO2 T00890050
Loading
Personal Weather Stations






























Interactive Weather Map New forecast layout! Learn more

10-Day Weather Forecast

Advertisements
Track Severe Weather on mobile